createdAt,value
2024-02-18T00:01:57.566Z,100.00
2024-02-18T00:07:03.924Z,100.00
2024-02-18T00:12:08.418Z,100.00
2024-02-18T00:17:11.686Z,100.00
2024-02-18T00:22:15.097Z,100.00
2024-02-18T00:27:18.962Z,100.00
2024-02-18T00:32:23.245Z,100.00
2024-02-18T00:37:27.743Z,100.00
2024-02-18T00:42:31.274Z,100.00
2024-02-18T00:47:34.746Z,100.00
2024-02-18T00:52:38.093Z,100.00
2024-02-18T00:57:42.588Z,100.00
2024-02-18T01:02:46.277Z,100.00
2024-02-18T01:07:49.553Z,100.00
2024-02-18T01:12:53.027Z,100.00
2024-02-18T01:17:56.601Z,100.00
2024-02-18T01:23:00.003Z,100.00
2024-02-18T01:28:04.407Z,100.00
2024-02-18T01:33:08.028Z,100.00
2024-02-18T01:38:12.190Z,100.00
2024-02-18T01:43:19.862Z,100.00
2024-02-18T01:48:25.931Z,100.00
2024-02-18T01:53:29.694Z,100.00
2024-02-18T01:58:34.823Z,100.00
2024-02-18T02:09:01.161Z,100.00
2024-02-18T02:14:04.560Z,100.00
2024-02-18T02:19:08.518Z,100.00
2024-02-18T02:24:14.629Z,100.00
2024-02-18T02:29:18.201Z,100.00
2024-02-18T02:34:24.344Z,100.00
2024-02-18T02:39:27.721Z,100.00
2024-02-18T02:44:31.164Z,100.00
2024-02-18T02:49:34.575Z,100.00
2024-02-18T02:54:38.038Z,100.00
2024-02-18T02:59:41.635Z,100.00
2024-02-18T03:04:45.546Z,100.00
2024-02-18T03:09:48.826Z,100.00
2024-02-18T03:14:52.829Z,100.00
2024-02-18T03:19:56.728Z,100.00
2024-02-18T03:25:01.846Z,100.00
2024-02-18T03:30:09.060Z,100.00
2024-02-18T03:35:14.210Z,100.00
2024-02-18T03:40:18.119Z,100.00
2024-02-18T03:45:22.136Z,100.00
2024-02-18T03:50:26.093Z,100.00
2024-02-18T03:55:31.208Z,100.00
2024-02-18T04:00:35.408Z,100.00
2024-02-18T04:05:39.461Z,100.00
2024-02-18T04:16:01.695Z,98.73
2024-02-18T04:21:06.146Z,98.64
2024-02-18T04:26:10.228Z,98.96
2024-02-18T04:31:13.808Z,98.63
2024-02-18T04:36:18.341Z,98.04
2024-02-18T04:41:22.959Z,97.84
2024-02-18T04:46:26.652Z,95.33
2024-02-18T04:51:30.551Z,94.04
2024-02-18T04:56:34.571Z,92.11
2024-02-18T05:01:39.626Z,93.99
2024-02-18T05:06:50.557Z,92.10
2024-02-18T05:11:54.732Z,91.98
2024-02-18T05:17:01.007Z,92.15
2024-02-18T05:22:06.552Z,92.49
2024-02-18T05:27:10.863Z,92.44
2024-02-18T05:32:14.160Z,93.25
2024-02-18T05:37:18.300Z,93.30
2024-02-18T05:42:23.191Z,94.01
2024-02-18T05:47:27.119Z,93.69
2024-02-18T05:52:30.733Z,93.84
2024-02-18T05:57:34.454Z,93.58
2024-02-18T06:02:39.675Z,93.97
2024-02-18T06:13:02.166Z,94.99
2024-02-18T06:18:06.185Z,95.21
2024-02-18T06:23:09.762Z,95.46
2024-02-18T06:28:14.112Z,93.31
2024-02-18T06:33:18.572Z,91.74
2024-02-18T06:38:22.726Z,90.94
2024-02-18T06:43:26.035Z,88.78
2024-02-18T06:48:30.654Z,64.53
2024-02-18T06:53:34.563Z,53.12
2024-02-18T06:58:38.291Z,46.75
2024-02-18T07:03:43.068Z,40.98
2024-02-18T07:08:47.688Z,38.29
2024-02-18T07:13:52.723Z,36.47
2024-02-18T07:18:57.104Z,35.45
2024-02-18T07:24:01.005Z,34.31
2024-02-18T07:29:06.355Z,34.10
2024-02-18T07:34:10.660Z,32.59
2024-02-18T07:39:14.826Z,31.83
2024-02-18T07:44:18.997Z,33.58
2024-02-18T07:49:24.125Z,33.20
2024-02-18T07:54:28.626Z,29.87
2024-02-18T07:59:36.455Z,30.51
2024-02-18T08:04:42.441Z,31.92
2024-02-18T08:09:46.907Z,30.33
2024-02-18T08:14:51.608Z,30.39
2024-02-18T08:19:55.600Z,28.97
2024-02-18T08:25:00.173Z,28.10
2024-02-18T08:30:05.659Z,28.15
2024-02-18T08:35:09.918Z,27.92
2024-02-18T08:40:14.643Z,29.18
2024-02-18T08:45:18.166Z,29.02
2024-02-18T08:50:22.652Z,28.04
2024-02-18T08:55:28.981Z,29.12
2024-02-18T09:00:33.125Z,31.33
2024-02-18T09:10:57.898Z,29.33
2024-02-18T09:16:01.657Z,31.01
2024-02-18T09:21:06.497Z,30.99
2024-02-18T09:26:12.082Z,33.01
2024-02-18T09:31:16.591Z,31.07
2024-02-18T09:36:20.321Z,32.87
2024-02-18T09:41:29.265Z,32.49
2024-02-18T09:46:38.574Z,33.96
2024-02-18T09:51:42.768Z,36.22
2024-02-18T09:56:46.374Z,34.97
2024-02-18T10:01:56.203Z,36.32
2024-02-18T10:06:59.705Z,34.06
2024-02-18T10:12:04.182Z,35.36
2024-02-18T10:17:09.001Z,34.47
2024-02-18T10:22:12.724Z,35.09
2024-02-18T10:27:17.881Z,36.31
2024-02-18T10:32:21.522Z,35.54
2024-02-18T10:37:32.139Z,34.73
2024-02-18T10:42:38.985Z,38.83
2024-02-18T10:47:47.155Z,39.12
2024-02-18T10:52:56.197Z,42.66
2024-02-18T10:58:28.295Z,42.00
2024-02-18T11:03:40.625Z,43.81
2024-02-18T11:08:47.781Z,43.90
2024-02-18T11:13:53.261Z,45.65
2024-02-18T11:18:57.784Z,45.07
2024-02-18T11:24:01.715Z,44.00
2024-02-18T11:29:06.573Z,44.27
2024-02-18T11:34:10.525Z,43.58
2024-02-18T11:39:15.305Z,43.59
2024-02-18T11:44:20.559Z,44.28
2024-02-18T11:49:25.351Z,45.23
2024-02-18T11:54:28.969Z,42.49
2024-02-18T11:59:35.563Z,43.69
2024-02-18T12:04:40.066Z,42.97
2024-02-18T12:09:45.209Z,42.47
2024-02-18T12:14:55.238Z,42.95
2024-02-18T12:19:59.493Z,41.43
2024-02-18T12:25:05.619Z,41.50
2024-02-18T12:30:10.844Z,41.60
2024-02-18T12:35:14.486Z,40.52
2024-02-18T12:40:18.612Z,39.73
2024-02-18T12:45:42.668Z,40.18
2024-02-18T12:51:13.905Z,39.34
2024-02-18T12:56:18.785Z,38.68
2024-02-18T13:01:23.480Z,38.55
2024-02-18T13:06:27.567Z,38.17
2024-02-18T13:11:31.039Z,39.09
2024-02-18T13:16:34.556Z,39.10
2024-02-18T13:21:38.376Z,38.66
2024-02-18T13:26:42.459Z,39.12
2024-02-18T13:31:46.092Z,38.78
2024-02-18T13:36:51.178Z,37.91
2024-02-18T13:41:55.671Z,38.04
2024-02-18T13:47:00.321Z,37.74
2024-02-18T13:52:04.438Z,37.50
2024-02-18T13:57:09.271Z,37.63
2024-02-18T14:02:13.344Z,37.48
2024-02-18T14:07:20.782Z,37.07
2024-02-18T14:12:24.066Z,37.44
2024-02-18T14:17:27.552Z,35.86
2024-02-18T14:22:31.114Z,37.77
2024-02-18T14:27:35.289Z,37.15
2024-02-18T14:32:39.059Z,36.37
2024-02-18T14:37:43.053Z,38.16
2024-02-18T14:42:47.157Z,36.93
2024-02-18T14:47:51.232Z,37.10
2024-02-18T14:52:57.619Z,35.92
2024-02-18T14:58:01.974Z,35.93
2024-02-18T15:03:05.949Z,36.60
2024-02-18T15:08:09.305Z,37.81
2024-02-18T15:13:14.790Z,38.61
2024-02-18T15:18:19.391Z,38.88
2024-02-18T15:23:23.800Z,40.32
2024-02-18T15:28:27.786Z,40.19
2024-02-18T15:33:31.372Z,40.32
2024-02-18T15:38:35.215Z,39.84
2024-02-18T15:43:39.833Z,41.54
2024-02-18T15:48:43.446Z,43.05
2024-02-18T15:53:47.609Z,44.39
2024-02-18T15:58:54.554Z,44.49
2024-02-18T16:03:59.060Z,45.35
2024-02-18T16:09:07.120Z,48.00
2024-02-18T16:14:10.629Z,50.02
2024-02-18T16:24:32.085Z,54.81
2024-02-18T16:29:36.725Z,55.53
2024-02-18T16:34:41.438Z,56.38
2024-02-18T16:39:46.456Z,55.55
2024-02-18T16:44:50.084Z,62.07
2024-02-18T16:49:53.868Z,63.38
2024-02-18T16:54:57.220Z,65.92
2024-02-18T17:00:01.226Z,67.69
2024-02-18T17:05:07.633Z,68.70
2024-02-18T17:10:12.637Z,69.42
2024-02-18T17:15:16.106Z,65.79
2024-02-18T17:20:20.049Z,66.80
2024-02-18T17:25:24.304Z,68.65
2024-02-18T17:30:30.606Z,69.93
2024-02-18T17:35:34.584Z,71.14
2024-02-18T17:40:38.667Z,71.36
2024-02-18T17:45:42.827Z,70.21
2024-02-18T17:50:46.364Z,70.72
2024-02-18T17:55:50.827Z,70.35
2024-02-18T18:00:54.223Z,70.36
2024-02-18T18:05:57.736Z,71.24
2024-02-18T18:11:01.473Z,71.11
2024-02-18T18:16:08.754Z,72.47
2024-02-18T18:21:12.670Z,72.89
2024-02-18T18:26:17.482Z,73.59
2024-02-18T18:31:21.455Z,73.44
2024-02-18T18:36:25.323Z,74.26
2024-02-18T18:41:30.036Z,75.45
2024-02-18T18:46:37.133Z,75.49
2024-02-18T18:51:41.199Z,76.14
2024-02-18T18:56:44.441Z,76.75
2024-02-18T19:01:48.850Z,77.37
2024-02-18T19:06:52.355Z,78.29
2024-02-18T19:11:57.133Z,79.52
2024-02-18T19:17:00.976Z,80.47
2024-02-18T19:22:04.858Z,82.15
2024-02-18T19:27:09.233Z,82.82
2024-02-18T19:32:13.608Z,82.74
2024-02-18T19:37:17.788Z,84.45
2024-02-18T19:42:21.091Z,84.96
2024-02-18T19:47:26.209Z,85.22
2024-02-18T19:52:29.611Z,85.74
2024-02-18T19:57:32.995Z,86.28
2024-02-18T20:02:36.947Z,86.68
2024-02-18T20:07:40.459Z,87.25
2024-02-18T20:12:45.390Z,88.01
2024-02-18T20:17:51.911Z,89.19
2024-02-18T20:22:56.524Z,86.29
2024-02-18T20:28:03.440Z,89.38
2024-02-18T20:33:07.485Z,90.87
2024-02-18T20:38:11.669Z,92.08
2024-02-18T20:43:15.074Z,92.99
2024-02-18T20:48:18.526Z,93.55
2024-02-18T20:53:23.119Z,94.49
2024-02-18T20:58:26.416Z,94.89
2024-02-18T21:03:30.281Z,95.88
2024-02-18T21:08:36.402Z,96.12
2024-02-18T21:13:39.744Z,96.22
2024-02-18T21:18:43.345Z,96.77
2024-02-18T21:23:47.102Z,97.17
2024-02-18T21:28:50.985Z,97.15
2024-02-18T21:33:54.753Z,96.96
2024-02-18T21:38:58.185Z,97.26
2024-02-18T21:44:06.106Z,97.84
2024-02-18T21:49:10.082Z,98.56
2024-02-18T21:54:13.621Z,98.70
2024-02-18T21:59:17.533Z,98.76
2024-02-18T22:04:21.169Z,98.51
2024-02-18T22:09:24.841Z,98.11
2024-02-18T22:14:28.694Z,97.65
2024-02-18T22:19:32.451Z,98.33
2024-02-18T22:24:36.134Z,98.22
2024-02-18T22:29:41.142Z,97.58
2024-02-18T22:34:45.141Z,97.66
2024-02-18T22:39:49.029Z,97.80
2024-02-18T22:44:53.075Z,97.42
2024-02-18T22:49:56.881Z,97.50
2024-02-18T22:55:00.215Z,97.66
2024-02-18T23:00:17.228Z,97.58
2024-02-18T23:05:20.653Z,98.02
2024-02-18T23:10:24.476Z,97.14
2024-02-18T23:15:29.091Z,97.43
2024-02-18T23:20:32.336Z,97.06
2024-02-18T23:25:35.631Z,97.67
2024-02-18T23:30:40.157Z,98.13
2024-02-18T23:35:44.472Z,98.97
2024-02-18T23:40:48.384Z,98.48
2024-02-18T23:45:51.965Z,98.12
2024-02-18T23:50:56.045Z,98.17
2024-02-18T23:56:00.262Z,97.74
